KDAN/DAN METAR and TAF weather

Enter ICAO airport designator
Station Type Date Time Source
KDAN METAR 2020/01/19 22:53 UTC NOAA

KDAN 192253Z AUTO 36014G20KT 10SM CLR 03/M06 A3005 RMK AO2 SLP172 T00331061


Station Type Date Time Source
KDAN Decoded METAR 2020/01/19 22:53 UTC NOAA

DANVILLE REGIONAL AIRPORT, VA, United States (KDAN) 36-34N 079-20W 175M
Jan 19, 2020 - 05:53 PM EST / 2020.01.19 2253 UTC
Wind: from the N (360 degrees) at 16 MPH (14 KT) gusting to 23 MPH (20 KT):0
Visibility: 10 mile(s):0
Sky conditions: clear
Temperature: 37.9 F (3.3 C)
Dew Point: 21.0 F (-6.1 C)
Relative Humidity: 50%
Pressure (altimeter): 30.05 in. Hg (1017 hPa)
ob: KDAN 192253Z AUTO 36014G20KT 10SM CLR 03/M06 A3005 RMK AO2 SLP172 T00331061
cycle: 23

Station Type Date Time Source
KDAN TAF 2020/01/19 18:24 UTC NOAA

TAF KDAN 191720Z 1918/2018 32013G20KT P6SM FEW250
FM200000 32009KT P6SM SKC

Example: see airport list